sensor_id;sensor_type;location;lat;lon;timestamp;P1;durP1;ratioP1;P2;durP2;ratioP2
55497;SDS011;41357;52.806;18.268;2023-04-24T00:00:23;17.67;;;10.23;;
55497;SDS011;41357;52.806;18.268;2023-04-24T00:02:49;15.88;;;9.52;;
55497;SDS011;41357;52.806;18.268;2023-04-24T00:05:16;18.75;;;9.15;;
55497;SDS011;41357;52.806;18.268;2023-04-24T00:07:43;16.75;;;8.95;;
55497;SDS011;41357;52.806;18.268;2023-04-24T00:10:10;18.17;;;9.15;;
55497;SDS011;41357;52.806;18.268;2023-04-24T00:12:36;14.55;;;8.98;;
55497;SDS011;41357;52.806;18.268;2023-04-24T00:15:03;16.63;;;9.05;;
55497;SDS011;41357;52.806;18.268;2023-04-24T00:17:29;12.95;;;8.20;;
55497;SDS011;41357;52.806;18.268;2023-04-24T00:19:55;13.75;;;8.45;;
55497;SDS011;41357;52.806;18.268;2023-04-24T00:22:25;16.00;;;8.40;;
55497;SDS011;41357;52.806;18.268;2023-04-24T00:24:51;14.15;;;8.68;;
55497;SDS011;41357;52.806;18.268;2023-04-24T00:27:18;15.63;;;8.70;;
55497;SDS011;41357;52.806;18.268;2023-04-24T00:29:44;15.65;;;8.50;;
55497;SDS011;41357;52.806;18.268;2023-04-24T00:32:10;13.52;;;8.48;;
55497;SDS011;41357;52.806;18.268;2023-04-24T00:34:36;18.05;;;8.30;;
55497;SDS011;41357;52.806;18.268;2023-04-24T00:37:03;16.27;;;7.95;;
55497;SDS011;41357;52.806;18.268;2023-04-24T00:39:29;13.88;;;8.52;;
55497;SDS011;41357;52.806;18.268;2023-04-24T00:41:55;15.10;;;8.45;;
55497;SDS011;41357;52.806;18.268;2023-04-24T00:44:21;21.75;;;8.50;;
55497;SDS011;41357;52.806;18.268;2023-04-24T00:46:48;13.73;;;8.73;;
55497;SDS011;41357;52.806;18.268;2023-04-24T00:49:20;20.02;;;8.88;;
55497;SDS011;41357;52.806;18.268;2023-04-24T00:51:46;19.15;;;8.60;;
55497;SDS011;41357;52.806;18.268;2023-04-24T00:54:15;19.42;;;8.95;;
55497;SDS011;41357;52.806;18.268;2023-04-24T00:56:41;18.52;;;9.02;;
55497;SDS011;41357;52.806;18.268;2023-04-24T00:59:08;14.73;;;8.68;;
55497;SDS011;41357;52.806;18.268;2023-04-24T01:01:34;16.63;;;8.95;;
55497;SDS011;41357;52.806;18.268;2023-04-24T01:04:00;13.48;;;8.30;;
55497;SDS011;41357;52.806;18.268;2023-04-24T01:06:27;15.00;;;8.27;;
55497;SDS011;41357;52.806;18.268;2023-04-24T01:08:54;14.63;;;8.77;;
55497;SDS011;41357;52.806;18.268;2023-04-24T01:11:24;17.55;;;8.50;;
55497;SDS011;41357;52.806;18.268;2023-04-24T01:13:50;14.13;;;9.03;;
55497;SDS011;41357;52.806;18.268;2023-04-24T01:16:18;15.75;;;8.50;;
55497;SDS011;41357;52.806;18.268;2023-04-24T01:18:47;13.80;;;9.20;;
55497;SDS011;41357;52.806;18.268;2023-04-24T01:21:14;13.45;;;9.05;;
55497;SDS011;41357;52.806;18.268;2023-04-24T01:23:42;15.13;;;9.25;;
55497;SDS011;41357;52.806;18.268;2023-04-24T01:26:09;15.60;;;9.85;;
55497;SDS011;41357;52.806;18.268;2023-04-24T01:28:35;15.60;;;8.63;;
55497;SDS011;41357;52.806;18.268;2023-04-24T01:31:01;17.27;;;8.50;;
55497;SDS011;41357;52.806;18.268;2023-04-24T01:33:27;15.65;;;9.30;;
55497;SDS011;41357;52.806;18.268;2023-04-24T01:35:54;19.40;;;10.20;;
55497;SDS011;41357;52.806;18.268;2023-04-24T01:38:20;18.25;;;9.38;;
55497;SDS011;41357;52.806;18.268;2023-04-24T01:40:46;16.40;;;9.23;;
55497;SDS011;41357;52.806;18.268;2023-04-24T01:43:12;15.45;;;9.18;;
55497;SDS011;41357;52.806;18.268;2023-04-24T01:45:39;14.23;;;9.55;;
55497;SDS011;41357;52.806;18.268;2023-04-24T01:48:05;18.67;;;10.02;;
55497;SDS011;41357;52.806;18.268;2023-04-24T01:50:31;17.38;;;10.05;;
55497;SDS011;41357;52.806;18.268;2023-04-24T01:52:57;18.40;;;10.50;;
55497;SDS011;41357;52.806;18.268;2023-04-24T01:55:23;14.40;;;9.48;;
55497;SDS011;41357;52.806;18.268;2023-04-24T01:57:50;21.98;;;10.30;;
55497;SDS011;41357;52.806;18.268;2023-04-24T02:00:17;20.73;;;10.68;;
55497;SDS011;41357;52.806;18.268;2023-04-24T02:02:43;18.27;;;10.48;;
55497;SDS011;41357;52.806;18.268;2023-04-24T02:05:10;21.30;;;11.05;;
55497;SDS011;41357;52.806;18.268;2023-04-24T02:07:36;23.70;;;12.02;;
55497;SDS011;41357;52.806;18.268;2023-04-24T02:10:02;21.65;;;11.02;;
55497;SDS011;41357;52.806;18.268;2023-04-24T02:12:29;20.17;;;10.25;;
55497;SDS011;41357;52.806;18.268;2023-04-24T02:14:55;15.85;;;9.18;;
55497;SDS011;41357;52.806;18.268;2023-04-24T02:17:21;15.73;;;9.27;;
55497;SDS011;41357;52.806;18.268;2023-04-24T02:19:47;15.75;;;9.55;;
55497;SDS011;41357;52.806;18.268;2023-04-24T02:22:13;19.90;;;9.50;;
55497;SDS011;41357;52.806;18.268;2023-04-24T02:24:39;21.80;;;10.07;;
55497;SDS011;41357;52.806;18.268;2023-04-24T02:27:06;16.55;;;9.73;;
55497;SDS011;41357;52.806;18.268;2023-04-24T02:29:32;18.23;;;9.70;;
55497;SDS011;41357;52.806;18.268;2023-04-24T02:31:58;19.38;;;10.18;;
55497;SDS011;41357;52.806;18.268;2023-04-24T02:34:24;16.10;;;9.02;;
55497;SDS011;41357;52.806;18.268;2023-04-24T02:36:50;14.98;;;9.23;;
55497;SDS011;41357;52.806;18.268;2023-04-24T02:39:18;13.73;;;8.75;;
55497;SDS011;41357;52.806;18.268;2023-04-24T02:41:45;18.35;;;9.57;;
55497;SDS011;41357;52.806;18.268;2023-04-24T02:44:11;13.65;;;8.23;;
55497;SDS011;41357;52.806;18.268;2023-04-24T02:46:37;15.70;;;9.05;;
55497;SDS011;41357;52.806;18.268;2023-04-24T02:49:03;16.10;;;8.73;;
55497;SDS011;41357;52.806;18.268;2023-04-24T02:51:29;12.45;;;8.30;;
55497;SDS011;41357;52.806;18.268;2023-04-24T02:53:56;16.00;;;8.73;;
55497;SDS011;41357;52.806;18.268;2023-04-24T02:56:22;12.80;;;8.35;;
55497;SDS011;41357;52.806;18.268;2023-04-24T02:58:48;15.00;;;8.55;;
55497;SDS011;41357;52.806;18.268;2023-04-24T03:01:14;19.85;;;10.00;;
55497;SDS011;41357;52.806;18.268;2023-04-24T03:03:40;11.18;;;7.32;;
55497;SDS011;41357;52.806;18.268;2023-04-24T03:06:06;13.38;;;8.52;;
55497;SDS011;41357;52.806;18.268;2023-04-24T03:08:33;18.25;;;8.68;;
55497;SDS011;41357;52.806;18.268;2023-04-24T03:10:59;14.40;;;8.23;;
55497;SDS011;41357;52.806;18.268;2023-04-24T03:13:26;15.52;;;8.80;;
55497;SDS011;41357;52.806;18.268;2023-04-24T03:15:52;21.48;;;9.93;;
55497;SDS011;41357;52.806;18.268;2023-04-24T03:18:19;18.27;;;10.02;;
55497;SDS011;41357;52.806;18.268;2023-04-24T03:20:45;13.45;;;8.10;;
55497;SDS011;41357;52.806;18.268;2023-04-24T03:23:12;16.90;;;9.27;;
55497;SDS011;41357;52.806;18.268;2023-04-24T03:25:38;17.38;;;9.45;;
55497;SDS011;41357;52.806;18.268;2023-04-24T03:28:04;16.10;;;9.38;;
55497;SDS011;41357;52.806;18.268;2023-04-24T03:30:30;16.42;;;9.40;;
55497;SDS011;41357;52.806;18.268;2023-04-24T03:32:56;15.18;;;9.02;;
55497;SDS011;41357;52.806;18.268;2023-04-24T03:35:23;17.52;;;9.63;;
55497;SDS011;41357;52.806;18.268;2023-04-24T03:37:49;19.13;;;10.45;;
55497;SDS011;41357;52.806;18.268;2023-04-24T03:40:15;22.60;;;9.98;;
55497;SDS011;41357;52.806;18.268;2023-04-24T03:42:41;16.75;;;9.60;;
55497;SDS011;41357;52.806;18.268;2023-04-24T03:45:07;18.20;;;9.43;;
55497;SDS011;41357;52.806;18.268;2023-04-24T03:47:34;19.85;;;10.05;;
55497;SDS011;41357;52.806;18.268;2023-04-24T03:50:00;14.43;;;9.00;;
55497;SDS011;41357;52.806;18.268;2023-04-24T03:52:26;16.35;;;9.32;;
55497;SDS011;41357;52.806;18.268;2023-04-24T03:54:52;32.17;;;23.40;;
55497;SDS011;41357;52.806;18.268;2023-04-24T03:57:18;24.83;;;15.25;;
55497;SDS011;41357;52.806;18.268;2023-04-24T03:59:44;18.95;;;12.32;;
55497;SDS011;41357;52.806;18.268;2023-04-24T04:02:10;16.20;;;9.50;;
55497;SDS011;41357;52.806;18.268;2023-04-24T04:04:36;15.32;;;10.05;;
55497;SDS011;41357;52.806;18.268;2023-04-24T04:07:02;19.88;;;11.07;;
55497;SDS011;41357;52.806;18.268;2023-04-24T04:09:30;17.27;;;10.50;;
55497;SDS011;41357;52.806;18.268;2023-04-24T04:11:57;18.00;;;10.57;;
55497;SDS011;41357;52.806;18.268;2023-04-24T04:14:23;17.85;;;10.07;;
55497;SDS011;41357;52.806;18.268;2023-04-24T04:16:49;21.02;;;9.98;;
55497;SDS011;41357;52.806;18.268;2023-04-24T04:19:16;15.63;;;9.52;;
55497;SDS011;41357;52.806;18.268;2023-04-24T04:21:42;22.33;;;11.57;;
55497;SDS011;41357;52.806;18.268;2023-04-24T04:24:10;17.48;;;9.60;;
55497;SDS011;41357;52.806;18.268;2023-04-24T04:26:36;18.77;;;10.05;;
55497;SDS011;41357;52.806;18.268;2023-04-24T04:29:03;14.98;;;10.23;;
55497;SDS011;41357;52.806;18.268;2023-04-24T04:31:29;16.40;;;9.43;;
55497;SDS011;41357;52.806;18.268;2023-04-24T04:33:55;16.40;;;10.35;;
55497;SDS011;41357;52.806;18.268;2023-04-24T04:36:22;21.75;;;11.55;;
55497;SDS011;41357;52.806;18.268;2023-04-24T04:38:49;17.88;;;9.93;;
55497;SDS011;41357;52.806;18.268;2023-04-24T04:41:15;21.50;;;10.10;;
55497;SDS011;41357;52.806;18.268;2023-04-24T04:43:43;17.55;;;10.45;;
55497;SDS011;41357;52.806;18.268;2023-04-24T04:46:09;15.40;;;9.55;;
55497;SDS011;41357;52.806;18.268;2023-04-24T04:48:36;19.88;;;9.63;;
55497;SDS011;41357;52.806;18.268;2023-04-24T04:51:03;18.13;;;9.95;;
55497;SDS011;41357;52.806;18.268;2023-04-24T04:53:29;18.38;;;9.77;;
55497;SDS011;41357;52.806;18.268;2023-04-24T04:55:55;15.43;;;9.07;;
55497;SDS011;41357;52.806;18.268;2023-04-24T04:58:21;16.52;;;8.98;;
55497;SDS011;41357;52.806;18.268;2023-04-24T05:00:47;19.48;;;10.68;;
55497;SDS011;41357;52.806;18.268;2023-04-24T05:03:14;16.08;;;9.13;;
55497;SDS011;41357;52.806;18.268;2023-04-24T05:05:40;20.70;;;10.45;;
55497;SDS011;41357;52.806;18.268;2023-04-24T05:08:07;18.40;;;9.35;;
55497;SDS011;41357;52.806;18.268;2023-04-24T05:10:33;17.10;;;8.55;;
55497;SDS011;41357;52.806;18.268;2023-04-24T05:12:59;17.33;;;10.40;;
55497;SDS011;41357;52.806;18.268;2023-04-24T05:15:26;17.40;;;8.98;;
55497;SDS011;41357;52.806;18.268;2023-04-24T05:17:52;14.05;;;8.82;;
55497;SDS011;41357;52.806;18.268;2023-04-24T05:20:18;15.55;;;9.77;;
55497;SDS011;41357;52.806;18.268;2023-04-24T05:22:44;14.30;;;8.98;;
55497;SDS011;41357;52.806;18.268;2023-04-24T05:25:10;13.25;;;8.93;;
55497;SDS011;41357;52.806;18.268;2023-04-24T05:27:37;16.98;;;9.23;;
55497;SDS011;41357;52.806;18.268;2023-04-24T05:30:04;15.10;;;9.30;;
55497;SDS011;41357;52.806;18.268;2023-04-24T05:32:31;15.75;;;9.32;;
55497;SDS011;41357;52.806;18.268;2023-04-24T05:34:57;15.68;;;9.85;;
55497;SDS011;41357;52.806;18.268;2023-04-24T05:37:23;14.45;;;9.82;;
55497;SDS011;41357;52.806;18.268;2023-04-24T05:39:49;15.60;;;9.13;;
55497;SDS011;41357;52.806;18.268;2023-04-24T05:42:15;16.52;;;9.57;;
55497;SDS011;41357;52.806;18.268;2023-04-24T05:44:41;20.58;;;9.63;;
55497;SDS011;41357;52.806;18.268;2023-04-24T05:47:07;16.20;;;9.30;;
55497;SDS011;41357;52.806;18.268;2023-04-24T05:49:33;15.60;;;9.55;;
55497;SDS011;41357;52.806;18.268;2023-04-24T05:52:00;14.73;;;9.48;;
55497;SDS011;41357;52.806;18.268;2023-04-24T05:54:26;13.93;;;9.52;;
55497;SDS011;41357;52.806;18.268;2023-04-24T05:56:52;16.85;;;9.45;;
55497;SDS011;41357;52.806;18.268;2023-04-24T05:59:20;18.30;;;9.98;;
55497;SDS011;41357;52.806;18.268;2023-04-24T06:01:46;15.75;;;9.98;;
55497;SDS011;41357;52.806;18.268;2023-04-24T06:04:12;15.48;;;9.75;;
55497;SDS011;41357;52.806;18.268;2023-04-24T06:06:39;14.95;;;8.98;;
55497;SDS011;41357;52.806;18.268;2023-04-24T06:09:05;16.55;;;9.70;;
55497;SDS011;41357;52.806;18.268;2023-04-24T06:11:31;19.10;;;10.18;;
55497;SDS011;41357;52.806;18.268;2023-04-24T06:13:57;18.67;;;9.70;;
55497;SDS011;41357;52.806;18.268;2023-04-24T06:16:24;14.68;;;8.93;;
55497;SDS011;41357;52.806;18.268;2023-04-24T06:18:50;14.50;;;8.98;;
55497;SDS011;41357;52.806;18.268;2023-04-24T06:21:16;20.80;;;9.60;;
55497;SDS011;41357;52.806;18.268;2023-04-24T06:23:42;23.08;;;9.50;;
55497;SDS011;41357;52.806;18.268;2023-04-24T06:26:09;17.20;;;9.63;;
55497;SDS011;41357;52.806;18.268;2023-04-24T06:28:35;18.60;;;9.93;;
55497;SDS011;41357;52.806;18.268;2023-04-24T06:31:01;17.65;;;8.98;;
55497;SDS011;41357;52.806;18.268;2023-04-24T06:33:27;16.25;;;9.40;;
55497;SDS011;41357;52.806;18.268;2023-04-24T06:35:53;16.45;;;9.35;;
55497;SDS011;41357;52.806;18.268;2023-04-24T06:38:20;11.52;;;8.27;;
55497;SDS011;41357;52.806;18.268;2023-04-24T06:40:46;15.20;;;9.30;;
55497;SDS011;41357;52.806;18.268;2023-04-24T06:43:12;12.10;;;8.45;;
55497;SDS011;41357;52.806;18.268;2023-04-24T06:45:39;14.15;;;9.10;;
55497;SDS011;41357;52.806;18.268;2023-04-24T06:48:05;13.45;;;8.23;;
55497;SDS011;41357;52.806;18.268;2023-04-24T06:50:32;14.05;;;8.18;;
55497;SDS011;41357;52.806;18.268;2023-04-24T06:52:58;11.43;;;7.47;;
55497;SDS011;41357;52.806;18.268;2023-04-24T06:55:24;11.75;;;6.65;;
55497;SDS011;41357;52.806;18.268;2023-04-24T06:57:50;11.05;;;6.95;;
55497;SDS011;41357;52.806;18.268;2023-04-24T07:00:16;15.43;;;8.43;;
55497;SDS011;41357;52.806;18.268;2023-04-24T07:02:42;18.50;;;10.05;;
55497;SDS011;41357;52.806;18.268;2023-04-24T07:05:09;15.10;;;8.38;;
55497;SDS011;41357;52.806;18.268;2023-04-24T07:07:35;12.00;;;8.50;;
55497;SDS011;41357;52.806;18.268;2023-04-24T07:10:03;13.13;;;8.52;;
55497;SDS011;41357;52.806;18.268;2023-04-24T07:12:29;17.08;;;9.98;;
55497;SDS011;41357;52.806;18.268;2023-04-24T07:14:55;20.55;;;11.52;;
55497;SDS011;41357;52.806;18.268;2023-04-24T07:17:21;24.00;;;10.75;;
55497;SDS011;41357;52.806;18.268;2023-04-24T07:19:48;14.98;;;9.43;;
55497;SDS011;41357;52.806;18.268;2023-04-24T07:22:14;13.82;;;9.45;;
55497;SDS011;41357;52.806;18.268;2023-04-24T07:24:44;15.20;;;8.93;;
55497;SDS011;41357;52.806;18.268;2023-04-24T07:27:11;18.95;;;10.57;;
55497;SDS011;41357;52.806;18.268;2023-04-24T07:29:37;15.90;;;9.60;;
55497;SDS011;41357;52.806;18.268;2023-04-24T07:32:03;16.83;;;10.02;;
55497;SDS011;41357;52.806;18.268;2023-04-24T07:34:29;13.20;;;9.98;;
55497;SDS011;41357;52.806;18.268;2023-04-24T07:36:55;14.05;;;10.30;;
55497;SDS011;41357;52.806;18.268;2023-04-24T07:39:22;16.80;;;11.93;;
55497;SDS011;41357;52.806;18.268;2023-04-24T07:41:48;14.43;;;11.00;;
55497;SDS011;41357;52.806;18.268;2023-04-24T07:44:14;15.77;;;10.50;;
55497;SDS011;41357;52.806;18.268;2023-04-24T07:46:40;22.52;;;12.10;;
55497;SDS011;41357;52.806;18.268;2023-04-24T07:49:06;20.27;;;11.35;;
55497;SDS011;41357;52.806;18.268;2023-04-24T07:51:32;15.90;;;9.27;;
55497;SDS011;41357;52.806;18.268;2023-04-24T07:54:03;12.93;;;8.90;;
55497;SDS011;41357;52.806;18.268;2023-04-24T07:56:30;17.27;;;8.77;;
55497;SDS011;41357;52.806;18.268;2023-04-24T07:58:57;9.82;;;7.10;;
55497;SDS011;41357;52.806;18.268;2023-04-24T08:01:23;10.13;;;7.05;;
55497;SDS011;41357;52.806;18.268;2023-04-24T08:03:50;11.60;;;4.82;;
55497;SDS011;41357;52.806;18.268;2023-04-24T08:06:16;10.20;;;6.07;;
55497;SDS011;41357;52.806;18.268;2023-04-24T08:08:42;10.07;;;5.78;;
55497;SDS011;41357;52.806;18.268;2023-04-24T08:11:08;7.53;;;5.00;;
55497;SDS011;41357;52.806;18.268;2023-04-24T08:13:35;6.95;;;4.53;;
55497;SDS011;41357;52.806;18.268;2023-04-24T08:16:01;7.05;;;4.72;;
55497;SDS011;41357;52.806;18.268;2023-04-24T08:18:27;8.63;;;6.00;;
55497;SDS011;41357;52.806;18.268;2023-04-24T08:20:53;8.05;;;5.95;;
55497;SDS011;41357;52.806;18.268;2023-04-24T08:23:19;9.70;;;6.80;;
55497;SDS011;41357;52.806;18.268;2023-04-24T08:25:45;5.65;;;4.45;;
55497;SDS011;41357;52.806;18.268;2023-04-24T08:28:11;9.70;;;6.03;;
55497;SDS011;41357;52.806;18.268;2023-04-24T08:30:39;10.30;;;5.00;;
55497;SDS011;41357;52.806;18.268;2023-04-24T08:33:05;8.20;;;5.63;;
55497;SDS011;41357;52.806;18.268;2023-04-24T08:35:32;6.90;;;4.75;;
55497;SDS011;41357;52.806;18.268;2023-04-24T08:37:58;7.65;;;4.65;;
55497;SDS011;41357;52.806;18.268;2023-04-24T08:40:27;6.30;;;4.70;;
55497;SDS011;41357;52.806;18.268;2023-04-24T08:42:56;6.90;;;5.07;;
55497;SDS011;41357;52.806;18.268;2023-04-24T08:45:22;7.22;;;4.63;;
55497;SDS011;41357;52.806;18.268;2023-04-24T08:47:49;6.65;;;5.00;;
55497;SDS011;41357;52.806;18.268;2023-04-24T08:50:15;9.40;;;4.90;;
55497;SDS011;41357;52.806;18.268;2023-04-24T08:52:42;6.60;;;4.70;;
55497;SDS011;41357;52.806;18.268;2023-04-24T08:55:08;7.85;;;4.88;;
55497;SDS011;41357;52.806;18.268;2023-04-24T08:57:35;11.70;;;8.20;;
55497;SDS011;41357;52.806;18.268;2023-04-24T09:00:05;7.30;;;5.35;;
55497;SDS011;41357;52.806;18.268;2023-04-24T09:02:31;10.20;;;6.40;;
55497;SDS011;41357;52.806;18.268;2023-04-24T09:04:59;10.38;;;5.85;;
55497;SDS011;41357;52.806;18.268;2023-04-24T09:07:26;10.02;;;5.35;;
55497;SDS011;41357;52.806;18.268;2023-04-24T09:09:53;7.55;;;5.47;;
55497;SDS011;41357;52.806;18.268;2023-04-24T09:12:19;7.70;;;5.68;;
55497;SDS011;41357;52.806;18.268;2023-04-24T09:14:46;7.82;;;5.28;;
55497;SDS011;41357;52.806;18.268;2023-04-24T09:17:14;8.30;;;5.90;;
55497;SDS011;41357;52.806;18.268;2023-04-24T09:19:40;9.43;;;5.53;;
55497;SDS011;41357;52.806;18.268;2023-04-24T09:22:07;11.40;;;6.30;;
55497;SDS011;41357;52.806;18.268;2023-04-24T09:24:33;8.18;;;5.55;;
55497;SDS011;41357;52.806;18.268;2023-04-24T09:27:00;10.75;;;6.70;;
55497;SDS011;41357;52.806;18.268;2023-04-24T09:29:27;10.63;;;7.07;;
55497;SDS011;41357;52.806;18.268;2023-04-24T09:31:53;11.38;;;5.95;;
55497;SDS011;41357;52.806;18.268;2023-04-24T09:34:21;11.27;;;7.05;;
55497;SDS011;41357;52.806;18.268;2023-04-24T09:36:47;8.65;;;6.43;;
55497;SDS011;41357;52.806;18.268;2023-04-24T09:39:14;14.43;;;6.78;;
55497;SDS011;41357;52.806;18.268;2023-04-24T09:41:51;10.07;;;6.95;;
55497;SDS011;41357;52.806;18.268;2023-04-24T09:44:21;8.23;;;6.30;;
55497;SDS011;41357;52.806;18.268;2023-04-24T09:46:57;19.67;;;7.78;;
55497;SDS011;41357;52.806;18.268;2023-04-24T09:49:30;11.38;;;7.47;;
55497;SDS011;41357;52.806;18.268;2023-04-24T09:52:05;17.35;;;7.35;;
55497;SDS011;41357;52.806;18.268;2023-04-24T09:54:31;12.00;;;6.63;;
55497;SDS011;41357;52.806;18.268;2023-04-24T09:56:58;10.75;;;6.60;;
55497;SDS011;41357;52.806;18.268;2023-04-24T09:59:28;10.48;;;6.80;;
55497;SDS011;41357;52.806;18.268;2023-04-24T10:01:55;12.38;;;7.20;;
55497;SDS011;41357;52.806;18.268;2023-04-24T10:04:27;10.65;;;7.13;;
55497;SDS011;41357;52.806;18.268;2023-04-24T10:06:54;11.98;;;7.03;;
55497;SDS011;41357;52.806;18.268;2023-04-24T10:09:22;10.45;;;7.00;;
55497;SDS011;41357;52.806;18.268;2023-04-24T10:11:49;12.63;;;7.50;;
55497;SDS011;41357;52.806;18.268;2023-04-24T10:14:17;13.93;;;6.90;;
55497;SDS011;41357;52.806;18.268;2023-04-24T10:16:44;8.57;;;6.20;;
55497;SDS011;41357;52.806;18.268;2023-04-24T10:19:12;11.63;;;6.35;;
55497;SDS011;41357;52.806;18.268;2023-04-24T10:21:38;9.63;;;6.10;;
55497;SDS011;41357;52.806;18.268;2023-04-24T10:24:10;15.20;;;8.98;;
55497;SDS011;41357;52.806;18.268;2023-04-24T10:26:36;9.85;;;7.18;;
55497;SDS011;41357;52.806;18.268;2023-04-24T10:29:03;16.67;;;8.43;;
55497;SDS011;41357;52.806;18.268;2023-04-24T10:31:34;17.75;;;11.10;;
55497;SDS011;41357;52.806;18.268;2023-04-24T10:34:01;15.70;;;9.35;;
55497;SDS011;41357;52.806;18.268;2023-04-24T10:36:28;18.15;;;8.23;;
55497;SDS011;41357;52.806;18.268;2023-04-24T10:38:57;14.80;;;8.50;;
55497;SDS011;41357;52.806;18.268;2023-04-24T10:41:25;15.13;;;7.97;;
55497;SDS011;41357;52.806;18.268;2023-04-24T10:46:37;10.63;;;6.88;;
55497;SDS011;41357;52.806;18.268;2023-04-24T10:49:04;9.32;;;6.57;;
55497;SDS011;41357;52.806;18.268;2023-04-24T10:54:22;13.60;;;7.90;;
55497;SDS011;41357;52.806;18.268;2023-04-24T10:56:48;10.50;;;6.55;;
55497;SDS011;41357;52.806;18.268;2023-04-24T10:59:23;13.10;;;6.57;;
55497;SDS011;41357;52.806;18.268;2023-04-24T11:01:53;13.05;;;7.38;;
55497;SDS011;41357;52.806;18.268;2023-04-24T11:04:29;10.93;;;6.80;;
55497;SDS011;41357;52.806;18.268;2023-04-24T11:06:56;9.63;;;6.88;;
55497;SDS011;41357;52.806;18.268;2023-04-24T11:09:24;12.38;;;7.20;;
55497;SDS011;41357;52.806;18.268;2023-04-24T11:11:51;13.07;;;7.55;;
55497;SDS011;41357;52.806;18.268;2023-04-24T11:14:28;9.38;;;6.85;;
55497;SDS011;41357;52.806;18.268;2023-04-24T11:16:54;17.55;;;7.90;;
55497;SDS011;41357;52.806;18.268;2023-04-24T11:19:22;15.50;;;8.20;;
55497;SDS011;41357;52.806;18.268;2023-04-24T11:21:58;10.85;;;7.03;;
55497;SDS011;41357;52.806;18.268;2023-04-24T11:26:53;12.93;;;8.05;;
55497;SDS011;41357;52.806;18.268;2023-04-24T11:29:20;9.93;;;7.50;;
55497;SDS011;41357;52.806;18.268;2023-04-24T11:31:46;11.77;;;7.15;;
55497;SDS011;41357;52.806;18.268;2023-04-24T11:34:15;10.82;;;7.35;;
55497;SDS011;41357;52.806;18.268;2023-04-24T11:36:45;13.30;;;7.22;;
55497;SDS011;41357;52.806;18.268;2023-04-24T11:39:12;17.58;;;8.60;;
55497;SDS011;41357;52.806;18.268;2023-04-24T11:41:38;11.30;;;7.07;;
55497;SDS011;41357;52.806;18.268;2023-04-24T11:44:05;9.35;;;7.15;;
55497;SDS011;41357;52.806;18.268;2023-04-24T11:46:32;8.43;;;6.68;;
55497;SDS011;41357;52.806;18.268;2023-04-24T11:48:58;12.07;;;7.50;;
55497;SDS011;41357;52.806;18.268;2023-04-24T11:51:28;7.38;;;6.10;;
55497;SDS011;41357;52.806;18.268;2023-04-24T11:53:55;9.85;;;7.30;;
55497;SDS011;41357;52.806;18.268;2023-04-24T11:56:22;12.18;;;8.00;;
55497;SDS011;41357;52.806;18.268;2023-04-24T11:58:48;11.30;;;8.38;;
55497;SDS011;41357;52.806;18.268;2023-04-24T12:01:14;9.88;;;7.25;;
55497;SDS011;41357;52.806;18.268;2023-04-24T12:03:40;8.75;;;6.28;;
55497;SDS011;41357;52.806;18.268;2023-04-24T12:06:10;11.02;;;6.13;;
55497;SDS011;41357;52.806;18.268;2023-04-24T12:08:37;8.65;;;5.72;;
55497;SDS011;41357;52.806;18.268;2023-04-24T12:11:03;22.08;;;8.00;;
55497;SDS011;41357;52.806;18.268;2023-04-24T12:13:32;11.27;;;5.25;;
55497;SDS011;41357;52.806;18.268;2023-04-24T12:15:58;6.80;;;5.15;;
55497;SDS011;41357;52.806;18.268;2023-04-24T12:18:25;7.22;;;4.82;;
55497;SDS011;41357;52.806;18.268;2023-04-24T12:20:51;5.95;;;4.88;;
55497;SDS011;41357;52.806;18.268;2023-04-24T12:23:33;7.38;;;5.18;;
55497;SDS011;41357;52.806;18.268;2023-04-24T12:26:00;11.93;;;5.97;;
55497;SDS011;41357;52.806;18.268;2023-04-24T12:28:34;11.32;;;7.05;;
55497;SDS011;41357;52.806;18.268;2023-04-24T12:31:00;7.00;;;5.05;;
55497;SDS011;41357;52.806;18.268;2023-04-24T12:33:26;7.20;;;3.50;;
55497;SDS011;41357;52.806;18.268;2023-04-24T12:35:52;7.95;;;3.80;;
55497;SDS011;41357;52.806;18.268;2023-04-24T12:38:22;4.75;;;3.42;;
55497;SDS011;41357;52.806;18.268;2023-04-24T12:41:00;5.63;;;3.45;;
55497;SDS011;41357;52.806;18.268;2023-04-24T12:43:26;6.03;;;3.25;;
55497;SDS011;41357;52.806;18.268;2023-04-24T12:45:52;4.55;;;3.22;;
55497;SDS011;41357;52.806;18.268;2023-04-24T12:48:19;7.95;;;3.85;;
55497;SDS011;41357;52.806;18.268;2023-04-24T12:50:46;4.55;;;3.55;;
55497;SDS011;41357;52.806;18.268;2023-04-24T12:53:12;7.85;;;3.90;;
55497;SDS011;41357;52.806;18.268;2023-04-24T12:55:38;5.53;;;3.80;;
55497;SDS011;41357;52.806;18.268;2023-04-24T12:58:05;5.63;;;3.92;;
55497;SDS011;41357;52.806;18.268;2023-04-24T13:00:31;5.10;;;4.05;;
55497;SDS011;41357;52.806;18.268;2023-04-24T13:02:57;6.28;;;4.30;;
55497;SDS011;41357;52.806;18.268;2023-04-24T13:05:23;8.00;;;3.92;;
55497;SDS011;41357;52.806;18.268;2023-04-24T13:07:50;6.60;;;4.75;;
55497;SDS011;41357;52.806;18.268;2023-04-24T13:10:16;9.77;;;4.95;;
55497;SDS011;41357;52.806;18.268;2023-04-24T13:12:42;7.43;;;5.18;;
55497;SDS011;41357;52.806;18.268;2023-04-24T13:15:10;7.90;;;5.10;;
55497;SDS011;41357;52.806;18.268;2023-04-24T13:17:36;6.82;;;5.07;;
55497;SDS011;41357;52.806;18.268;2023-04-24T13:20:03;10.57;;;5.30;;
55497;SDS011;41357;52.806;18.268;2023-04-24T13:22:29;6.70;;;4.82;;
55497;SDS011;41357;52.806;18.268;2023-04-24T13:24:55;9.02;;;5.20;;
55497;SDS011;41357;52.806;18.268;2023-04-24T13:27:22;8.85;;;5.43;;
55497;SDS011;41357;52.806;18.268;2023-04-24T13:29:48;12.75;;;5.30;;
55497;SDS011;41357;52.806;18.268;2023-04-24T13:32:14;10.35;;;5.22;;
55497;SDS011;41357;52.806;18.268;2023-04-24T13:34:40;9.32;;;5.32;;
55497;SDS011;41357;52.806;18.268;2023-04-24T13:37:07;7.10;;;5.65;;
55497;SDS011;41357;52.806;18.268;2023-04-24T13:39:33;10.43;;;5.68;;
55497;SDS011;41357;52.806;18.268;2023-04-24T13:42:00;7.50;;;5.60;;
55497;SDS011;41357;52.806;18.268;2023-04-24T13:44:26;8.60;;;5.53;;
55497;SDS011;41357;52.806;18.268;2023-04-24T13:46:53;15.25;;;7.43;;
55497;SDS011;41357;52.806;18.268;2023-04-24T13:49:21;10.43;;;5.88;;
55497;SDS011;41357;52.806;18.268;2023-04-24T13:51:49;9.13;;;6.10;;
55497;SDS011;41357;52.806;18.268;2023-04-24T13:54:16;10.55;;;7.00;;
55497;SDS011;41357;52.806;18.268;2023-04-24T13:56:42;6.35;;;5.22;;
55497;SDS011;41357;52.806;18.268;2023-04-24T13:59:08;7.03;;;5.65;;
55497;SDS011;41357;52.806;18.268;2023-04-24T14:01:34;8.02;;;4.80;;
55497;SDS011;41357;52.806;18.268;2023-04-24T14:04:01;7.03;;;4.93;;
55497;SDS011;41357;52.806;18.268;2023-04-24T14:06:27;5.80;;;4.60;;
55497;SDS011;41357;52.806;18.268;2023-04-24T14:08:53;6.20;;;4.88;;
55497;SDS011;41357;52.806;18.268;2023-04-24T14:11:19;7.35;;;4.85;;
55497;SDS011;41357;52.806;18.268;2023-04-24T14:13:45;6.95;;;5.13;;
55497;SDS011;41357;52.806;18.268;2023-04-24T14:16:12;6.22;;;4.68;;
55497;SDS011;41357;52.806;18.268;2023-04-24T14:18:39;6.40;;;4.80;;
55497;SDS011;41357;52.806;18.268;2023-04-24T14:21:05;5.65;;;4.80;;
55497;SDS011;41357;52.806;18.268;2023-04-24T14:23:31;7.38;;;4.90;;
55497;SDS011;41357;52.806;18.268;2023-04-24T14:25:58;5.55;;;4.80;;
55497;SDS011;41357;52.806;18.268;2023-04-24T14:28:24;7.32;;;5.40;;